Gilze-Rijen, Netherlands

9:55 AM CEST on May 27, 2017 (GMT +0200)
Gilze-Rijen Air Base

Weather History for EHGR - November, 2013

Change the Weather History Date:

Thursday, November 28, 2013

  Actual Average Record
Temperature  
Mean Temperature 46 °F -  
Max Temperature 50 °F 41 °F 59 °F (2000)
Min Temperature 42 °F 32 °F 19 °F (2010)
Degree Days  
Heating Degree Days 19    
Moisture  
Dew Point 45 °F    
Average Humidity 96    
Maximum Humidity 100    
Minimum Humidity 81    
Precipitation  
Precipitation 0.00 in - - ()
Sea Level Pressure  
Sea Level Pressure 30.48 in    
Wind  
Wind Speed 5 mph ()    
Max Wind Speed 10 mph    
Max Gust Speed -    
Visibility 2.8 miles    
Events Fog , Rain    
Averages and records for this station are not official NWS values.
T = Trace of Precipitation, MM = Missing Value Source: Averaged Metar Reports

Daily Weather History Graph

Daily Weather History Graph

Search for Another Location

Airport or City:

Trip Planner

Search our weather history database for the weather conditions in past years. The results will help you decide how hot, cold, wet, or windy it might be!

Date:

Astronomy

Nov. 28, 2013 Rise Set
Actual Time 8:19 AM CET 4:36 PM CET
Civil Twilight 7:40 AM CET 5:15 PM CET
Nautical Twilight 6:58 AM CET 5:57 PM CET
Astronomical Twilight 6:18 AM CET 6:37 PM CET
Moon 2:32 AM CET (11/28) 2:07 PM CET (11/28)
Length of Visible Light 9h 34m
Length of Day
8h 16m
Waning Crescent, 25% of the Moon is Illuminated
Nov 28
Waning Crescent
Dec 3
New
Dec 9
First Quarter
Dec 17
Full
Dec 25
Last Quarter

Hourly Weather History & Observations

Time (CET) Temp. Windchill Dew Point Humidity Pressure Visibility Wind Dir Wind Speed Gust Speed Precip Events Conditions
12:25 AM 42.8 °F 39.3 °F 42.8 °F 100% 30.51 in 1.4 mi WSW 5.8 mph - N/A   Overcast
12:55 AM 42.8 °F 39.3 °F 42.8 °F 100% 30.51 in 1.2 mi WSW 5.8 mph - N/A   Overcast
1:17 AM 42.8 °F 38.6 °F 42.8 °F 100% 30.48 in 0.9 mi WSW 6.9 mph - N/A   Mostly Cloudy
1:25 AM 42.8 °F 39.3 °F 42.8 °F 100% 30.48 in 0.9 mi WSW 5.8 mph - N/A   Overcast
1:55 AM 42.8 °F 39.3 °F 42.8 °F 100% 30.48 in 0.9 mi WSW 5.8 mph - N/A   Overcast
2:25 AM 42.8 °F 39.3 °F 42.8 °F 100% 30.48 in 0.9 mi WSW 5.8 mph - N/A   Overcast
2:55 AM 42.8 °F 38.6 °F 42.8 °F 100% 30.48 in 0.7 mi WSW 6.9 mph - N/A   Mostly Cloudy
3:21 AM 42.8 °F 39.3 °F 42.8 °F 100% 30.48 in 0.7 mi WSW 5.8 mph - N/A   Overcast
3:25 AM 42.8 °F 39.3 °F 42.8 °F 100% 30.48 in 0.7 mi WSW 5.8 mph - N/A   Overcast
3:31 AM 42.8 °F 39.3 °F 42.8 °F 100% 30.48 in 0.7 mi WSW 5.8 mph - N/A   Mostly Cloudy
3:55 AM 44.6 °F 40.7 °F 42.8 °F 93% 30.48 in 0.7 mi WSW 6.9 mph - N/A   Overcast
4:04 AM 44.6 °F 41.4 °F 42.8 °F 93% 30.48 in 0.7 mi WSW 5.8 mph - N/A   Overcast
4:25 AM 44.6 °F 41.4 °F 42.8 °F 93% 30.48 in 0.6 mi WSW 5.8 mph - N/A   Overcast
4:29 AM 44.6 °F 41.4 °F 42.8 °F 93% 30.48 in 0.6 mi WSW 5.8 mph - N/A   Mist
4:33 AM 44.6 °F 41.4 °F 42.8 °F 93% 30.48 in 0.6 mi WSW 5.8 mph - N/A   Overcast
4:37 AM 44.6 °F 41.4 °F 42.8 °F 93% 30.48 in 0.6 mi WSW 5.8 mph - N/A Fog Fog
4:49 AM 44.6 °F 41.4 °F 44.6 °F 100% 30.48 in 0.6 mi WSW 5.8 mph - N/A Fog Fog
4:55 AM 44.6 °F 41.4 °F 44.6 °F 100% 30.48 in 0.6 mi WSW 5.8 mph - N/A Fog Fog
4:59 AM 44.6 °F 40.7 °F 44.6 °F 100% 30.48 in 0.6 mi WSW 6.9 mph - N/A   Mostly Cloudy
5:12 AM 44.6 °F 40.7 °F 44.6 °F 100% 30.48 in 0.6 mi WSW 6.9 mph - N/A   Mist
5:18 AM 44.6 °F 41.4 °F 44.6 °F 100% 30.48 in 0.6 mi WSW 5.8 mph - N/A   Overcast
5:25 AM 44.6 °F 41.4 °F 44.6 °F 100% 30.48 in 0.6 mi WSW 5.8 mph - N/A Fog Fog
5:55 AM 44.6 °F 41.4 °F 44.6 °F 100% 30.48 in 0.5 mi WSW 5.8 mph - N/A Fog Fog
6:04 AM 44.6 °F 41.4 °F 44.6 °F 100% 30.48 in 0.5 mi West 5.8 mph - N/A Rain Light Rain
6:14 AM 44.6 °F 42.2 °F 44.6 °F 100% 30.48 in 0.5 mi WSW 4.6 mph - N/A Rain Light Rain
6:18 AM 44.6 °F 42.2 °F 44.6 °F 100% 30.48 in 0.5 mi WSW 4.6 mph - N/A Rain Rain
6:25 AM 44.6 °F 42.2 °F 44.6 °F 100% 30.48 in 0.5 mi WSW 4.6 mph - N/A   Drizzle
6:33 AM 44.6 °F 42.2 °F 44.6 °F 100% 30.48 in 0.5 mi WSW 4.6 mph - N/A   Drizzle
6:46 AM 44.6 °F 42.2 °F 44.6 °F 100% 30.48 in 0.6 mi West 4.6 mph - N/A   Mist
6:47 AM 44.6 °F 42.2 °F 44.6 °F 100% 30.48 in 0.6 mi West 4.6 mph - N/A   Overcast
6:55 AM 44.6 °F 42.2 °F 44.6 °F 100% 30.48 in 0.6 mi West 4.6 mph - N/A   Overcast
7:08 AM 44.6 °F 42.2 °F 44.6 °F 100% 30.48 in 0.6 mi WSW 4.6 mph - N/A Fog Fog
7:12 AM 44.6 °F 42.2 °F 44.6 °F 100% 30.48 in 0.6 mi WSW 4.6 mph - N/A Fog Fog
7:18 AM 44.6 °F 42.2 °F 44.6 °F 100% 30.48 in 0.6 mi WSW 4.6 mph - N/A   Mist
7:25 AM 44.6 °F 42.2 °F 44.6 °F 100% 30.48 in 0.6 mi West 4.6 mph - N/A Fog Fog
7:32 AM 44.6 °F 42.2 °F 44.6 °F 100% 30.48 in 0.6 mi West 4.6 mph - N/A Fog Fog
7:36 AM 44.6 °F 42.2 °F 44.6 °F 100% 30.48 in 0.6 mi West 4.6 mph - N/A Fog Fog
7:55 AM 44.6 °F 42.2 °F 44.6 °F 100% 30.48 in 0.6 mi WSW 4.6 mph - N/A Fog Fog
7:59 AM 44.6 °F 42.2 °F 44.6 °F 100% 30.48 in 0.6 mi WSW 4.6 mph - N/A Fog Fog
8:09 AM 44.6 °F 41.4 °F 44.6 °F 100% 30.48 in 0.6 mi WSW 5.8 mph - N/A   Mist
8:16 AM 44.6 °F 42.2 °F 44.6 °F 100% 30.48 in - West 4.6 mph - N/A Fog Fog
8:25 AM 44.6 °F 42.2 °F 44.6 °F 100% 30.48 in 0.4 mi West 4.6 mph - N/A   Heavy Drizzle
8:43 AM 46.4 °F 44.3 °F 44.6 °F 93% 30.48 in 0.4 mi WSW 4.6 mph - N/A Fog Fog
8:55 AM 46.4 °F 44.3 °F 44.6 °F 93% 30.48 in - WSW 4.6 mph - N/A Fog Fog
8:59 AM 46.4 °F 44.3 °F 44.6 °F 93% 30.48 in 0.5 mi WSW 4.6 mph - N/A Fog Fog
9:10 AM 46.4 °F 44.3 °F 46.4 °F 100% 30.48 in 0.5 mi WSW 4.6 mph - N/A Fog Fog
9:25 AM 46.4 °F 44.3 °F 46.4 °F 100% 30.48 in 0.5 mi WSW 4.6 mph - N/A Fog Fog
9:49 AM 46.4 °F 45.2 °F 46.4 °F 100% 30.48 in 0.5 mi West 3.5 mph - N/A Fog Fog
9:55 AM 46.4 °F 45.2 °F 46.4 °F 100% 30.48 in 0.6 mi West 3.5 mph - N/A Fog Fog
9:59 AM 46.4 °F 44.3 °F 46.4 °F 100% 30.51 in 0.5 mi West 4.6 mph - N/A Fog Fog
10:25 AM 46.4 °F 44.3 °F 46.4 °F 100% 30.51 in 0.6 mi West 4.6 mph - N/A   Drizzle
10:45 AM 46.4 °F 45.2 °F 46.4 °F 100% 30.51 in 0.6 mi West 3.5 mph - N/A   Mostly Cloudy
10:50 AM 48.2 °F - 46.4 °F 93% 30.51 in 0.6 mi West 3.5 mph - N/A   Overcast
10:55 AM 48.2 °F - 46.4 °F 93% 30.51 in 0.6 mi West 3.5 mph - N/A   Mostly Cloudy
11:04 AM 48.2 °F - 48.2 °F 100% 30.51 in 0.6 mi West 2.3 mph - N/A   Mostly Cloudy
11:25 AM 48.2 °F - 48.2 °F 100% 30.51 in 0.7 mi West 3.5 mph - N/A   Mostly Cloudy
11:55 AM 48.2 °F - 48.2 °F 100% 30.48 in 1.1 mi WSW 4.6 mph - N/A   Overcast
12:14 PM 48.2 °F - 48.2 °F 100% 30.48 in 1.9 mi NW 4.6 mph - N/A   Mostly Cloudy
12:25 PM 50.0 °F - 48.2 °F 94% 30.48 in 2.2 mi NW 3.5 mph - N/A   Mostly Cloudy
12:29 PM 48.2 °F - 48.2 °F 100% 30.48 in - NW 3.5 mph - N/A   Overcast
12:33 PM 48.2 °F - 48.2 °F 100% 30.48 in - NW 4.6 mph - N/A   Overcast
12:39 PM 50.0 °F - 48.2 °F 94% 30.48 in 2.5 mi NW 4.6 mph - N/A   Overcast
12:46 PM 48.2 °F - 48.2 °F 100% 30.48 in - WNW 3.5 mph - N/A   Overcast
12:55 PM 50.0 °F - 48.2 °F 94% 30.48 in - NW 4.6 mph - N/A   Mostly Cloudy
1:01 PM 50.0 °F - 48.2 °F 94% 30.48 in - WNW 3.5 mph - N/A   Overcast
1:08 PM 50.0 °F - 48.2 °F 94% 30.48 in 3.1 mi WNW 4.6 mph - N/A   Overcast
1:14 PM 50.0 °F - 48.2 °F 94% 30.48 in - NW 4.6 mph - N/A   Overcast
1:25 PM 50.0 °F - 48.2 °F 94% 30.48 in - NW 3.5 mph - N/A   Overcast
1:30 PM 50.0 °F - 48.2 °F 94% 30.48 in 3.1 mi NW 3.5 mph - N/A   Overcast
1:32 PM 50.0 °F - 48.2 °F 94% 30.48 in 3.1 mi NW 4.6 mph - N/A   Overcast
1:37 PM 50.0 °F - 48.2 °F 94% 30.48 in 3.1 mi NNW 4.6 mph - N/A   Mostly Cloudy
1:50 PM 50.0 °F - 48.2 °F 94% 30.48 in 3.7 mi NW 3.5 mph - N/A   Mostly Cloudy
1:55 PM 50.0 °F - 48.2 °F 94% 30.48 in 3.7 mi NW 3.5 mph - N/A   Overcast
2:25 PM 50.0 °F - 48.2 °F 94% 30.48 in 3.1 mi WNW 3.5 mph - N/A   Overcast
2:31 PM 50.0 °F - 48.2 °F 94% 30.48 in 3.1 mi NW 4.6 mph - N/A   Overcast
2:37 PM 50.0 °F - 48.2 °F 94% 30.48 in 2.8 mi NW 4.6 mph - N/A   Mostly Cloudy
2:55 PM 50.0 °F - 48.2 °F 94% 30.48 in - NW 3.5 mph - N/A   Overcast
3:08 PM 50.0 °F - 48.2 °F 94% 30.45 in 3.7 mi NNW 4.6 mph - N/A   Overcast
3:25 PM 50.0 °F - 48.2 °F 94% 30.45 in 4.3 mi NNW 4.6 mph - N/A   Overcast
3:43 PM 50.0 °F - 48.2 °F 94% 30.45 in 5.0 mi North 4.6 mph - N/A   Mostly Cloudy
3:49 PM 50.0 °F - 48.2 °F 94% 30.45 in 5.0 mi NNW 4.6 mph - N/A   Mostly Cloudy
3:55 PM 50.0 °F - 48.2 °F 94% 30.45 in 4.3 mi NNW 3.5 mph - N/A   Overcast
3:59 PM 50.0 °F - 48.2 °F 94% 30.45 in 5.0 mi NNW 3.5 mph - N/A   Mostly Cloudy
4:12 PM 50.0 °F - 48.2 °F 94% 30.48 in 5.0 mi NNW 3.5 mph - N/A   Mostly Cloudy
4:16 PM 50.0 °F - 48.2 °F 94% 30.48 in 5.6 mi North 3.5 mph - N/A   Mostly Cloudy
4:20 PM 50.0 °F - 48.2 °F 94% 30.48 in 5.0 mi North 4.6 mph - N/A   Mostly Cloudy
4:25 PM 50.0 °F - 48.2 °F 94% 30.48 in 5.0 mi North 4.6 mph - N/A   Mostly Cloudy
4:32 PM 50.0 °F - 46.4 °F 87% 30.48 in 5.6 mi NNE 8.1 mph - N/A Rain Rain
4:40 PM 48.2 °F - 46.4 °F 93% 30.48 in 6.2 mi NNE 10.4 mph - N/A Rain Drizzle
4:55 PM 48.2 °F - 44.6 °F 87% 30.48 in 6.2 mi NNE 10.4 mph - N/A   Overcast
5:05 PM 48.2 °F - 44.6 °F 87% 30.48 in 6.2 mi NNE 6.9 mph - N/A   Mostly Cloudy
5:09 PM 46.4 °F 43.5 °F 42.8 °F 87% 30.48 in 6.2 mi NE 5.8 mph - N/A   Overcast
5:25 PM 46.4 °F 44.3 °F 42.8 °F 87% 30.48 in 6.2 mi NNE 4.6 mph - N/A   Overcast
5:31 PM 46.4 °F 44.3 °F 42.8 °F 87% 30.48 in 6.2 mi NNE 4.6 mph - N/A   Overcast
5:45 PM 46.4 °F 45.2 °F 42.8 °F 87% 30.48 in 6.2 mi North 3.5 mph - N/A   Overcast
5:55 PM 44.6 °F - 42.8 °F 93% 30.48 in 6.2 mi North 2.3 mph - N/A   Overcast
6:25 PM 44.6 °F 43.1 °F 42.8 °F 93% 30.48 in 6.2 mi NW 3.5 mph - N/A   Overcast
6:33 PM 44.6 °F - 42.8 °F 93% 30.48 in 5.6 mi WNW 2.3 mph - N/A   Overcast
6:55 PM 44.6 °F 43.1 °F 42.8 °F 93% 30.48 in 6.2 mi WNW 3.5 mph - N/A   Overcast
7:02 PM 44.6 °F - 42.8 °F 93% 30.48 in 6.2 mi WNW 1.2 mph - N/A   Overcast
7:03 PM 44.6 °F - 42.8 °F 93% 30.48 in 6.2 mi NW 1.2 mph - N/A   Overcast
7:25 PM 44.6 °F 43.1 °F 42.8 °F 93% 30.51 in 6.2 mi NW 3.5 mph - N/A   Mostly Cloudy
7:33 PM 46.4 °F 45.2 °F 42.8 °F 87% 30.51 in 6.2 mi WNW 3.5 mph - N/A   Overcast
7:55 PM 44.6 °F 43.1 °F 42.8 °F 93% 30.48 in 5.0 mi WNW 3.5 mph - N/A   Overcast
7:59 PM 44.6 °F 43.1 °F 42.8 °F 93% 30.48 in 4.3 mi WNW 3.5 mph - N/A   Overcast
8:03 PM 44.6 °F 43.1 °F 42.8 °F 93% 30.48 in 5.6 mi WNW 3.5 mph - N/A   Overcast
8:16 PM 44.6 °F 41.4 °F 42.8 °F 93% 30.51 in 6.2 mi WNW 5.8 mph - N/A   Overcast
8:25 PM 44.6 °F 41.4 °F 42.8 °F 93% 30.51 in 6.2 mi WNW 5.8 mph - N/A   Overcast
8:39 PM 44.6 °F 41.4 °F 42.8 °F 93% 30.51 in 6.2 mi WNW 5.8 mph - N/A   Overcast
8:55 PM 44.6 °F 42.2 °F 42.8 °F 93% 30.51 in 6.2 mi NNW 4.6 mph - N/A   Overcast
9:25 PM 44.6 °F 43.1 °F 42.8 °F 93% 30.51 in 6.2 mi NW 3.5 mph - N/A   Overcast
9:46 PM 44.6 °F 43.1 °F 41.0 °F 87% 30.51 in 6.2 mi North 3.5 mph - N/A   Overcast
9:55 PM 46.4 °F 45.2 °F 41.0 °F 81% 30.51 in 6.2 mi North 3.5 mph - N/A   Overcast
10:25 PM 46.4 °F 44.3 °F 41.0 °F 81% 30.48 in 6.2 mi West 4.6 mph - N/A   Overcast
10:55 PM 44.6 °F 43.1 °F 42.8 °F 93% 30.48 in 6.2 mi West 3.5 mph - N/A   Overcast
11:25 PM 44.6 °F 43.1 °F 42.8 °F 93% 30.48 in 6.2 mi West 3.5 mph - N/A   Overcast
11:55 PM 44.6 °F 43.1 °F 42.8 °F 93% 30.48 in 6.2 mi WNW 3.5 mph - N/A   Overcast